Time;durP1;ratioP1;P1;durP2;ratioP2;P2;SDS_P1;SDS_P2;PMS_P1;PMS_P2;Temp;Humidity;BMP_temperature;BMP_pressure;BME280_temperature;BME280_humidity;BME280_pressure;Samples;Min_cycle;Max_cycle;Signal;HPM_P1;HPM_P2
2023/10/07 00:04:24;;;;;;;7.38;3.33;;;;;;;;;;8217604;28;20214;-63
2023/10/07 00:08:26;;;;;;;6.78;3.13;;;;;;;;;;8215171;28;20022;-62
2023/10/07 00:12:28;;;;;;;6.07;3.53;;;;;;;;;;8213633;28;20034;-62
2023/10/07 00:16:28;;;;;;;7.60;3.50;;;;;;;;;;8212773;28;20224;-62
2023/10/07 00:20:33;;;;;;;6.35;2.80;;;;;;;;;;8215268;28;20422;-62
2023/10/07 00:24:37;;;;;;;7.32;3.50;;;;;;;;;;8216638;28;20053;-63
2023/10/07 00:28:38;;;;;;;6.68;3.25;;;;;;;;;;8217172;28;20021;-62
2023/10/07 00:32:38;;;;;;;8.82;3.13;;;;;;;;;;8197787;28;20097;-62
2023/10/07 00:40:45;;;;;;;7.90;3.70;;;;;;;;;;8211658;28;20026;-63
2023/10/07 00:44:47;;;;;;;6.80;3.40;;;;;;;;;;8216003;28;20022;-62
2023/10/07 00:48:52;;;;;;;5.60;3.13;;;;;;;;;;8213458;28;20523;-62
2023/10/07 01:01:12;;;;;;;8.27;3.30;;;;;;;;;;8214751;28;20503;-61
2023/10/07 01:05:26;;;;;;;5.90;3.03;;;;;;;;;;8212727;28;20023;-62
2023/10/07 01:09:28;;;;;;;5.70;3.67;;;;;;;;;;8213478;28;20076;-62
2023/10/07 01:13:29;;;;;;;7.60;3.55;;;;;;;;;;8215002;28;20062;-61
2023/10/07 01:17:30;;;;;;;7.10;3.13;;;;;;;;;;8214710;28;20077;-62
2023/10/07 01:21:33;;;;;;;7.70;3.42;;;;;;;;;;8214785;28;20549;-62
2023/10/07 01:25:43;;;;;;;6.18;2.78;;;;;;;;;;8213351;28;20042;-62
2023/10/07 01:29:44;;;;;;;7.07;3.70;;;;;;;;;;8213657;28;20150;-61
2023/10/07 01:33:47;;;;;;;6.47;2.90;;;;;;;;;;8209598;28;20425;-63
2023/10/07 01:37:51;;;;;;;8.95;3.08;;;;;;;;;;8212445;28;20021;-60
2023/10/07 01:41:52;;;;;;;7.95;3.13;;;;;;;;;;8213658;28;20391;-61
2023/10/07 01:45:53;;;;;;;9.55;3.25;;;;;;;;;;8212271;28;20030;-61
2023/10/07 01:49:55;;;;;;;9.20;3.47;;;;;;;;;;8211423;28;20089;-61
2023/10/07 01:54:03;;;;;;;8.48;3.65;;;;;;;;;;8214739;28;20772;-62
2023/10/07 01:58:04;;;;;;;7.18;3.30;;;;;;;;;;8214696;28;20053;-61
2023/10/07 02:02:06;;;;;;;6.45;3.33;;;;;;;;;;8212170;28;20092;-61
2023/10/07 02:06:06;;;;;;;9.75;3.38;;;;;;;;;;8213521;28;20029;-61
2023/10/07 02:10:12;;;;;;;5.32;2.97;;;;;;;;;;8215575;28;20034;-61
2023/10/07 02:14:12;;;;;;;7.05;3.20;;;;;;;;;;8216833;28;20084;-61
2023/10/07 02:18:16;;;;;;;8.65;3.72;;;;;;;;;;8215612;28;20691;-61
2023/10/07 02:22:27;;;;;;;12.23;3.90;;;;;;;;;;8220499;28;20177;-61
2023/10/07 02:26:27;;;;;;;6.40;3.40;;;;;;;;;;8216349;28;20391;-61
2023/10/07 02:30:27;;;;;;;6.20;3.42;;;;;;;;;;8217392;28;20073;-61
2023/10/07 02:34:33;;;;;;;7.30;3.30;;;;;;;;;;8216582;28;20186;-61
2023/10/07 02:38:36;;;;;;;8.07;3.50;;;;;;;;;;8218648;28;20428;-61
2023/10/07 02:42:38;;;;;;;7.03;3.10;;;;;;;;;;8217555;28;20022;-61
2023/10/07 02:46:38;;;;;;;9.48;3.05;;;;;;;;;;8218572;28;20771;-61
2023/10/07 02:50:44;;;;;;;7.53;3.45;;;;;;;;;;8215915;28;20018;-61
2023/10/07 02:54:45;;;;;;;6.38;3.08;;;;;;;;;;8216621;28;20410;-61
2023/10/07 02:58:58;;;;;;;7.35;3.28;;;;;;;;;;8216933;28;21101;-63
2023/10/07 03:07:14;;;;;;;8.40;3.45;;;;;;;;;;8218981;28;21012;-61
2023/10/07 03:11:23;;;;;;;6.80;3.60;;;;;;;;;;8212277;28;20029;-61
2023/10/07 03:19:53;;;;;;;6.53;3.58;;;;;;;;;;8216414;28;20052;-62
2023/10/07 03:23:58;;;;;;;8.63;3.78;;;;;;;;;;8216646;28;21415;-61
2023/10/07 03:28:06;;;;;;;7.22;4.32;;;;;;;;;;8215842;28;20076;-61
2023/10/07 03:32:13;;;;;;;10.35;4.18;;;;;;;;;;8216867;28;20253;-61
2023/10/07 03:40:38;;;;;;;8.82;3.33;;;;;;;;;;8190635;28;20076;-61
2023/10/07 03:44:39;;;;;;;7.72;3.55;;;;;;;;;;8215750;28;20153;-61
2023/10/07 03:48:40;;;;;;;7.28;3.13;;;;;;;;;;8210866;28;20074;-63
2023/10/07 03:52:41;;;;;;;7.00;3.05;;;;;;;;;;8214862;28;20050;-62
2023/10/07 03:56:42;;;;;;;7.03;3.03;;;;;;;;;;8218270;28;20030;-61
2023/10/07 04:00:46;;;;;;;6.90;3.60;;;;;;;;;;8218225;28;20039;-62
2023/10/07 04:04:46;;;;;;;6.63;3.53;;;;;;;;;;8217237;28;20026;-61
2023/10/07 04:08:52;;;;;;;9.23;3.93;;;;;;;;;;8217204;28;20133;-62
2023/10/07 04:12:56;;;;;;;8.10;3.42;;;;;;;;;;8217984;28;20152;-62
2023/10/07 04:17:04;;;;;;;7.47;3.15;;;;;;;;;;8217881;28;20042;-61
2023/10/07 04:21:06;;;;;;;9.20;3.80;;;;;;;;;;8219385;28;20340;-62
2023/10/07 04:25:13;;;;;;;13.65;4.15;;;;;;;;;;8219304;28;20033;-61
2023/10/07 04:29:16;;;;;;;8.32;3.92;;;;;;;;;;8224958;28;20023;-62
2023/10/07 04:33:25;;;;;;;6.67;3.43;;;;;;;;;;8216624;28;20042;-62
2023/10/07 04:37:38;;;;;;;12.23;3.90;;;;;;;;;;8216524;28;20053;-62
2023/10/07 04:41:43;;;;;;;8.10;3.58;;;;;;;;;;8218195;28;20033;-61
2023/10/07 04:45:49;;;;;;;8.40;3.73;;;;;;;;;;8220146;28;20184;-61
2023/10/07 04:49:57;;;;;;;6.07;3.47;;;;;;;;;;8218117;28;20281;-62
2023/10/07 04:54:00;;;;;;;5.30;3.10;;;;;;;;;;8220102;28;23091;-62
2023/10/07 04:58:03;;;;;;;8.82;3.60;;;;;;;;;;8216834;28;20080;-62
2023/10/07 05:02:10;;;;;;;8.43;3.83;;;;;;;;;;8219599;28;20596;-61
2023/10/07 05:06:11;;;;;;;10.95;4.15;;;;;;;;;;8219843;28;20026;-62
2023/10/07 05:10:11;;;;;;;8.07;4.13;;;;;;;;;;8219599;28;20018;-61
2023/10/07 05:14:11;;;;;;;9.88;3.60;;;;;;;;;;8219811;28;20041;-61
2023/10/07 05:18:16;;;;;;;6.63;3.78;;;;;;;;;;8217203;28;20039;-62
2023/10/07 05:22:18;;;;;;;9.75;4.38;;;;;;;;;;8221223;28;20033;-62
2023/10/07 05:26:18;;;;;;;11.45;4.45;;;;;;;;;;8219616;28;20422;-61
2023/10/07 05:30:18;;;;;;;8.30;4.18;;;;;;;;;;8218142;28;20030;-62
2023/10/07 05:34:19;;;;;;;10.38;4.65;;;;;;;;;;8219139;28;20037;-60
2023/10/07 05:38:19;;;;;;;10.77;4.43;;;;;;;;;;8214270;28;20029;-61
2023/10/07 05:42:20;;;;;;;8.40;4.40;;;;;;;;;;8213602;28;20880;-61
2023/10/07 05:46:20;;;;;;;14.05;5.32;;;;;;;;;;8217572;28;20034;-60
2023/10/07 05:50:22;;;;;;;13.50;5.10;;;;;;;;;;8220544;28;20057;-61
2023/10/07 05:54:22;;;;;;;9.13;5.28;;;;;;;;;;8219158;28;20125;-61
2023/10/07 05:58:22;;;;;;;9.35;4.80;;;;;;;;;;8219171;28;20058;-62
2023/10/07 06:02:23;;;;;;;13.45;4.75;;;;;;;;;;8214131;28;20046;-62
2023/10/07 06:06:23;;;;;;;11.47;4.40;;;;;;;;;;8218087;28;20033;-62
2023/10/07 06:10:24;;;;;;;15.63;4.95;;;;;;;;;;8218255;28;20269;-61
2023/10/07 06:14:24;;;;;;;13.05;4.88;;;;;;;;;;8215916;28;20029;-61
2023/10/07 06:18:25;;;;;;;9.15;4.97;;;;;;;;;;8217729;28;20046;-62
2023/10/07 06:22:25;;;;;;;11.68;4.88;;;;;;;;;;8214954;28;20034;-65
2023/10/07 06:26:26;;;;;;;8.13;4.43;;;;;;;;;;8219228;28;20038;-62
2023/10/07 06:30:26;;;;;;;11.03;5.30;;;;;;;;;;8217228;28;20096;-62
2023/10/07 06:34:27;;;;;;;11.20;4.75;;;;;;;;;;8213773;28;20449;-62
2023/10/07 06:38:27;;;;;;;9.52;4.60;;;;;;;;;;8214801;28;20041;-64
2023/10/07 06:42:27;;;;;;;9.93;5.20;;;;;;;;;;8215554;28;20065;-62
2023/10/07 06:46:40;;;;;;;12.55;4.60;;;;;;;;;;8215380;28;20033;-62
2023/10/07 06:50:41;;;;;;;11.30;4.75;;;;;;;;;;8215066;28;20049;-62
2023/10/07 06:54:41;;;;;;;13.52;4.57;;;;;;;;;;8214661;28;20061;-62
2023/10/07 06:58:43;;;;;;;9.17;4.20;;;;;;;;;;8215501;28;20042;-62
2023/10/07 07:02:43;;;;;;;10.48;4.47;;;;;;;;;;8214098;28;20400;-61
2023/10/07 07:06:44;;;;;;;9.10;4.47;;;;;;;;;;8217245;28;20026;-61
2023/10/07 07:10:47;;;;;;;8.23;4.07;;;;;;;;;;8213283;28;20143;-62
2023/10/07 07:14:51;;;;;;;8.82;4.72;;;;;;;;;;8214492;28;20036;-61
2023/10/07 07:18:52;;;;;;;8.18;4.70;;;;;;;;;;8214588;28;20974;-62
2023/10/07 07:22:52;;;;;;;16.33;4.55;;;;;;;;;;8214634;28;20808;-61
2023/10/07 07:26:52;;;;;;;9.40;4.40;;;;;;;;;;8211889;28;20382;-62
2023/10/07 07:30:57;;;;;;;7.07;4.00;;;;;;;;;;8216620;28;20164;-62
2023/10/07 07:35:02;;;;;;;8.93;4.10;;;;;;;;;;8217197;28;22450;-61
2023/10/07 07:39:08;;;;;;;9.15;4.03;;;;;;;;;;8216968;28;20025;-61
2023/10/07 07:43:09;;;;;;;6.97;3.85;;;;;;;;;;8216228;28;20026;-61
2023/10/07 07:47:10;;;;;;;7.53;3.60;;;;;;;;;;8211426;28;20032;-61
2023/10/07 07:51:17;;;;;;;7.72;3.88;;;;;;;;;;8216079;28;20026;-61
2023/10/07 07:55:17;;;;;;;10.30;4.32;;;;;;;;;;8214845;28;20929;-61
2023/10/07 07:59:18;;;;;;;7.13;3.73;;;;;;;;;;8213714;28;20825;-62
2023/10/07 08:03:18;;;;;;;5.95;3.35;;;;;;;;;;8216074;28;20517;-61
2023/10/07 08:07:19;;;;;;;7.60;3.73;;;;;;;;;;8214975;28;20107;-61
2023/10/07 08:11:20;;;;;;;8.70;4.53;;;;;;;;;;8212680;28;20347;-62
2023/10/07 08:15:23;;;;;;;7.35;4.10;;;;;;;;;;8216553;28;20041;-61
2023/10/07 08:19:24;;;;;;;10.02;4.90;;;;;;;;;;8211753;28;20042;-61
2023/10/07 08:23:28;;;;;;;6.88;3.30;;;;;;;;;;8214157;28;20036;-61
2023/10/07 08:31:49;;;;;;;7.20;3.55;;;;;;;;;;8213315;28;20084;-62
2023/10/07 08:35:51;;;;;;;8.07;3.65;;;;;;;;;;8212280;28;20032;-62
2023/10/07 08:39:56;;;;;;;5.78;3.58;;;;;;;;;;8211480;28;20035;-61
2023/10/07 08:44:29;;;;;;;6.35;3.63;;;;;;;;;;8219627;28;20218;-63
2023/10/07 08:48:30;;;;;;;8.90;3.60;;;;;;;;;;8210232;28;20041;-62
2023/10/07 08:52:30;;;;;;;5.87;3.20;;;;;;;;;;8212801;28;20011;-62
2023/10/07 08:56:35;;;;;;;5.57;3.03;;;;;;;;;;8212156;28;20085;-62
2023/10/07 09:00:45;;;;;;;7.97;3.58;;;;;;;;;;8213947;28;20034;-62
2023/10/07 09:04:45;;;;;;;8.32;3.50;;;;;;;;;;8214243;28;20018;-61
2023/10/07 09:08:45;;;;;;;7.00;3.40;;;;;;;;;;8213551;28;20120;-61
2023/10/07 09:12:46;;;;;;;7.40;3.60;;;;;;;;;;8212579;28;20056;-62
2023/10/07 09:16:47;;;;;;;6.22;3.35;;;;;;;;;;8210589;28;20174;-61
2023/10/07 09:20:50;;;;;;;6.80;3.63;;;;;;;;;;8217866;28;20084;-62
2023/10/07 09:25:01;;;;;;;6.13;3.42;;;;;;;;;;8219520;28;20201;-62
2023/10/07 09:29:15;;;;;;;6.93;3.80;;;;;;;;;;8217865;28;20041;-62
2023/10/07 09:33:17;;;;;;;;;;;;;;;;;;8216049;28;20034;-62
2023/10/07 09:37:32;;;;;;;8.27;3.70;;;;;;;;;;8218004;28;19914;-62
2023/10/07 09:41:33;;;;;;;6.50;3.45;;;;;;;;;;8219134;28;20145;-62
2023/10/07 09:45:34;;;;;;;6.22;3.03;;;;;;;;;;8214678;28;20193;-62
2023/10/07 09:49:36;;;;;;;7.78;3.53;;;;;;;;;;8219357;28;20033;-61
2023/10/07 09:54:10;;;;;;;7.78;3.60;;;;;;;;;;8219986;28;20128;-62
2023/10/07 09:58:24;;;;;;;12.40;4.38;;;;;;;;;;8214009;28;20045;-62
2023/10/07 10:02:43;;;;;;;7.57;3.72;;;;;;;;;;8213864;28;20181;-62
2023/10/07 10:07:05;;;;;;;9.40;4.20;;;;;;;;;;8220147;28;20084;-61
2023/10/07 10:11:20;;;;;;;7.07;4.10;;;;;;;;;;8219271;28;20133;-61
2023/10/07 10:19:47;;;;;;;5.28;3.42;;;;;;;;;;8215657;28;20072;-61
2023/10/07 10:23:51;;;;;;;9.60;4.10;;;;;;;;;;8222949;28;20140;-62
2023/10/07 10:28:02;;;;;;;4.45;3.38;;;;;;;;;;8214851;28;20026;-62
2023/10/07 10:32:07;;;;;;;6.47;3.65;;;;;;;;;;8212270;28;20092;-61
2023/10/07 10:36:07;;;;;;;6.82;3.65;;;;;;;;;;8209944;28;20102;-61
2023/10/07 10:40:14;;;;;;;6.65;4.05;;;;;;;;;;8210842;28;20117;-62
2023/10/07 10:44:16;;;;;;;6.20;3.40;;;;;;;;;;8217762;28;20093;-61
2023/10/07 10:48:25;;;;;;;5.93;3.97;;;;;;;;;;8213030;28;20066;-62
2023/10/07 10:52:26;;;;;;;6.55;3.60;;;;;;;;;;8216585;28;20036;-61
2023/10/07 10:56:27;;;;;;;6.07;3.95;;;;;;;;;;8213922;28;20026;-60
2023/10/07 11:00:28;;;;;;;9.95;3.90;;;;;;;;;;8208558;28;20462;-62
2023/10/07 11:04:31;;;;;;;6.88;4.00;;;;;;;;;;8202907;28;20022;-61
2023/10/07 11:08:33;;;;;;;7.38;4.07;;;;;;;;;;8204051;28;20025;-62
2023/10/07 11:12:33;;;;;;;10.05;4.45;;;;;;;;;;8175103;28;1049945;-61
2023/10/07 11:16:43;;;;;;;6.28;3.75;;;;;;;;;;8210415;28;20030;-62
2023/10/07 11:20:43;;;;;;;8.88;3.85;;;;;;;;;;8205466;28;20022;-61
2023/10/07 11:24:46;;;;;;;10.95;4.05;;;;;;;;;;8217036;28;20116;-61
2023/10/07 11:28:49;;;;;;;6.20;3.63;;;;;;;;;;8209329;28;21957;-62
2023/10/07 11:32:49;;;;;;;6.10;3.65;;;;;;;;;;8207156;28;20824;-62
2023/10/07 11:36:50;;;;;;;7.80;3.97;;;;;;;;;;8206651;28;20084;-61
2023/10/07 11:40:51;;;;;;;8.65;4.47;;;;;;;;;;8209235;28;20033;-61
2023/10/07 11:44:52;;;;;;;7.93;3.78;;;;;;;;;;8209186;28;20845;-61
2023/10/07 11:48:53;;;;;;;7.93;3.85;;;;;;;;;;8208820;28;20039;-61
2023/10/07 11:52:53;;;;;;;7.28;4.22;;;;;;;;;;8211772;28;20058;-60
2023/10/07 11:56:53;;;;;;;8.07;4.40;;;;;;;;;;8213335;28;20040;-61
2023/10/07 12:00:55;;;;;;;10.82;4.07;;;;;;;;;;8203864;28;20030;-61
2023/10/07 12:04:58;;;;;;;7.72;4.18;;;;;;;;;;8209770;28;20033;-61
2023/10/07 12:09:06;;;;;;;12.37;4.40;;;;;;;;;;8206946;28;22279;-62
2023/10/07 12:13:14;;;;;;;10.13;4.00;;;;;;;;;;8205521;28;20030;-61
2023/10/07 12:17:16;;;;;;;7.43;3.95;;;;;;;;;;8206060;28;20574;-61
2023/10/07 12:21:17;;;;;;;7.13;3.92;;;;;;;;;;8204282;28;20030;-61
2023/10/07 12:25:18;;;;;;;9.80;4.18;;;;;;;;;;8210498;28;20475;-61
2023/10/07 12:29:18;;;;;;;10.60;3.97;;;;;;;;;;8208925;28;20145;-62
2023/10/07 12:33:19;;;;;;;7.65;4.00;;;;;;;;;;8207217;28;20145;-61
2023/10/07 12:37:20;;;;;;;7.63;3.95;;;;;;;;;;8204478;28;20062;-61
2023/10/07 12:41:21;;;;;;;7.75;4.03;;;;;;;;;;8204831;28;20105;-61
2023/10/07 12:45:21;;;;;;;7.18;4.00;;;;;;;;;;8209461;28;20163;-61
2023/10/07 12:49:23;;;;;;;7.88;4.00;;;;;;;;;;8207190;28;20042;-61
2023/10/07 12:53:23;;;;;;;6.90;3.67;;;;;;;;;;8212005;28;20025;-61
2023/10/07 12:57:27;;;;;;;8.10;3.70;;;;;;;;;;8213963;28;20099;-62
2023/10/07 13:01:31;;;;;;;7.45;4.00;;;;;;;;;;8212790;28;20440;-61
2023/10/07 13:05:33;;;;;;;6.55;3.53;;;;;;;;;;8213152;28;20378;-61
2023/10/07 13:09:33;;;;;;;8.55;3.42;;;;;;;;;;8212755;28;20070;-62
2023/10/07 13:13:35;;;;;;;7.47;3.85;;;;;;;;;;8215132;28;20150;-61
2023/10/07 13:17:35;;;;;;;5.53;3.67;;;;;;;;;;8208687;28;20041;-61
2023/10/07 13:21:35;;;;;;;8.32;3.55;;;;;;;;;;8211645;28;20788;-61
2023/10/07 13:25:36;;;;;;;7.40;3.67;;;;;;;;;;8211581;28;20014;-62
2023/10/07 13:29:36;;;;;;;6.07;3.40;;;;;;;;;;8208517;28;20089;-62
2023/10/07 13:33:36;;;;;;;8.88;3.55;;;;;;;;;;8212545;28;20070;-62
2023/10/07 13:37:39;;;;;;;4.82;3.30;;;;;;;;;;8210207;28;20747;-61
2023/10/07 13:41:40;;;;;;;5.50;3.42;;;;;;;;;;8213046;28;20653;-61
2023/10/07 13:45:40;;;;;;;6.80;3.50;;;;;;;;;;8212656;28;20455;-61
2023/10/07 13:49:41;;;;;;;6.00;3.30;;;;;;;;;;8213223;28;20026;-61
2023/10/07 13:58:00;;;;;;;6.28;3.53;;;;;;;;;;8214103;28;20037;-61
2023/10/07 14:02:00;;;;;;;9.10;3.60;;;;;;;;;;8209787;28;20038;-61
2023/10/07 14:06:06;;;;;;;5.47;3.40;;;;;;;;;;8215931;28;20026;-61
2023/10/07 14:10:09;;;;;;;5.93;3.00;;;;;;;;;;8218309;28;20019;-63
2023/10/07 14:14:09;;;;;;;7.30;3.38;;;;;;;;;;8219176;28;20036;-61
2023/10/07 14:18:09;;;;;;;8.47;3.90;;;;;;;;;;8218564;28;20148;-61
2023/10/07 14:22:10;;;;;;;4.22;3.17;;;;;;;;;;8218305;28;20026;-61
2023/10/07 14:26:13;;;;;;;7.75;2.88;;;;;;;;;;8217719;28;20025;-61
2023/10/07 14:30:17;;;;;;;8.90;3.97;;;;;;;;;;8217967;28;20026;-61
2023/10/07 14:34:17;;;;;;;;;;;;;;;;;;8219369;28;20441;-60
2023/10/07 14:38:20;;;;;;;3.63;2.85;;;;;;;;;;8217959;28;20009;-61
2023/10/07 14:42:20;;;;;;;5.80;3.30;;;;;;;;;;8217798;28;20034;-62
2023/10/07 14:46:20;;;;;;;5.10;3.00;;;;;;;;;;8217897;28;20845;-61
2023/10/07 14:50:20;;;;;;;5.90;3.53;;;;;;;;;;8217298;28;20026;-61
2023/10/07 14:54:21;;;;;;;5.55;3.30;;;;;;;;;;8219164;28;20030;-61
2023/10/07 14:58:21;;;;;;;6.85;3.20;;;;;;;;;;8218633;28;20025;-61
2023/10/07 15:02:21;;;;;;;6.68;3.17;;;;;;;;;;8216264;28;20088;-61
2023/10/07 15:06:22;;;;;;;6.97;3.30;;;;;;;;;;8218454;28;20095;-61
2023/10/07 15:10:27;;;;;;;7.45;3.38;;;;;;;;;;8216703;28;20084;-61
2023/10/07 15:14:28;;;;;;;6.07;3.15;;;;;;;;;;8217869;28;20378;-61
2023/10/07 15:18:28;;;;;;;5.65;3.08;;;;;;;;;;8213900;28;20124;-61
2023/10/07 15:22:29;;;;;;;5.70;3.17;;;;;;;;;;8216620;28;20034;-61
2023/10/07 15:26:29;;;;;;;7.05;2.90;;;;;;;;;;8214628;28;20060;-61
2023/10/07 15:30:29;;;;;;;6.65;3.45;;;;;;;;;;8212428;28;20042;-60
2023/10/07 15:34:30;;;;;;;7.75;3.50;;;;;;;;;;8215813;28;20176;-61
2023/10/07 15:38:30;;;;;;;7.50;3.42;;;;;;;;;;8216411;28;20137;-61
2023/10/07 15:42:31;;;;;;;5.78;3.30;;;;;;;;;;8212262;28;20030;-61
2023/10/07 15:46:31;;;;;;;6.97;3.35;;;;;;;;;;8213091;28;20046;-62
2023/10/07 15:50:31;;;;;;;9.00;3.17;;;;;;;;;;8213680;28;20434;-62
2023/10/07 15:54:32;;;;;;;6.18;3.20;;;;;;;;;;8215374;28;20270;-61
2023/10/07 15:58:37;;;;;;;6.30;2.92;;;;;;;;;;8215761;28;20145;-61
2023/10/07 16:02:38;;;;;;;5.32;3.13;;;;;;;;;;8214056;28;20044;-61
2023/10/07 16:06:39;;;;;;;7.28;3.67;;;;;;;;;;8218637;28;20067;-64
2023/10/07 16:10:41;;;;;;;6.97;3.20;;;;;;;;;;8216624;28;20117;-62
2023/10/07 16:14:42;;;;;;;7.65;3.28;;;;;;;;;;8222699;28;20061;-61
2023/10/07 16:18:43;;;;;;;3.97;2.92;;;;;;;;;;8217539;28;20066;-61
2023/10/07 16:22:43;;;;;;;9.50;3.08;;;;;;;;;;8215887;28;20033;-61
2023/10/07 16:26:43;;;;;;;6.15;3.25;;;;;;;;;;8212234;28;20037;-61
2023/10/07 16:30:43;;;;;;;8.60;3.00;;;;;;;;;;8213062;28;20034;-61
2023/10/07 16:34:46;;;;;;;7.17;3.43;;;;;;;;;;8215153;28;20030;-61
2023/10/07 16:38:46;;;;;;;6.32;3.38;;;;;;;;;;8213218;28;20048;-61
2023/10/07 16:42:46;;;;;;;5.85;2.97;;;;;;;;;;8214806;28;20137;-61
2023/10/07 16:46:47;;;;;;;6.63;2.92;;;;;;;;;;8214166;28;20156;-62
2023/10/07 16:50:54;;;;;;;6.78;3.15;;;;;;;;;;8217299;28;20503;-62
2023/10/07 16:54:55;;;;;;;3.97;2.85;;;;;;;;;;8216737;28;22156;-61
2023/10/07 16:58:55;;;;;;;6.25;3.15;;;;;;;;;;8219089;28;20718;-60
2023/10/07 17:02:55;;;;;;;7.80;3.20;;;;;;;;;;8217178;28;22280;-60
2023/10/07 17:06:56;;;;;;;4.70;2.75;;;;;;;;;;8216282;28;20026;-61
2023/10/07 17:11:00;;;;;;;8.07;3.20;;;;;;;;;;8216121;28;20135;-61
2023/10/07 17:15:00;;;;;;;5.38;2.67;;;;;;;;;;8217321;28;20049;-62
2023/10/07 17:19:00;;;;;;;4.43;3.05;;;;;;;;;;8215470;28;20116;-61
2023/10/07 17:23:01;;;;;;;5.07;3.20;;;;;;;;;;8214931;28;20872;-61
2023/10/07 17:27:02;;;;;;;5.97;2.92;;;;;;;;;;8215382;28;20031;-62
2023/10/07 17:31:06;;;;;;;4.32;3.40;;;;;;;;;;8213746;28;20088;-61
2023/10/07 17:35:08;;;;;;;4.63;2.75;;;;;;;;;;8214029;28;20407;-61
2023/10/07 17:39:11;;;;;;;6.15;3.42;;;;;;;;;;8217666;28;20026;-61
2023/10/07 17:43:11;;;;;;;6.30;3.15;;;;;;;;;;8222517;28;20880;-62
2023/10/07 17:47:12;;;;;;;5.90;3.07;;;;;;;;;;8217998;28;20576;-62
2023/10/07 17:51:12;;;;;;;6.55;2.97;;;;;;;;;;8218938;28;20444;-61
2023/10/07 17:55:13;;;;;;;5.00;2.85;;;;;;;;;;8222562;28;20921;-62
2023/10/07 17:59:13;;;;;;;4.70;2.83;;;;;;;;;;8223029;28;20076;-60
2023/10/07 18:03:14;;;;;;;6.22;3.00;;;;;;;;;;8220475;28;20041;-61
2023/10/07 18:07:15;;;;;;;5.85;3.30;;;;;;;;;;8222338;28;20860;-61
2023/10/07 18:11:16;;;;;;;5.72;3.15;;;;;;;;;;8220206;28;20477;-62
2023/10/07 18:15:18;;;;;;;5.93;3.00;;;;;;;;;;8219245;28;20018;-65
2023/10/07 18:19:18;;;;;;;8.15;3.17;;;;;;;;;;8217781;28;20041;-61
2023/10/07 18:23:18;;;;;;;8.90;3.20;;;;;;;;;;8220656;28;20045;-61
2023/10/07 18:27:18;;;;;;;6.03;3.10;;;;;;;;;;8220703;28;20034;-62
2023/10/07 18:31:20;;;;;;;6.10;3.27;;;;;;;;;;8216938;28;20348;-61
2023/10/07 18:35:20;;;;;;;5.75;3.38;;;;;;;;;;8220405;28;20344;-61
2023/10/07 18:39:20;;;;;;;6.13;3.17;;;;;;;;;;8217888;28;20026;-62
2023/10/07 18:43:21;;;;;;;4.72;2.95;;;;;;;;;;8219673;28;21372;-61
2023/10/07 18:47:21;;;;;;;6.07;3.08;;;;;;;;;;8218594;28;20035;-61
2023/10/07 18:51:21;;;;;;;6.32;3.05;;;;;;;;;;8221001;28;20057;-61
2023/10/07 18:55:21;;;;;;;5.65;3.20;;;;;;;;;;8217738;28;20042;-62
2023/10/07 18:59:22;;;;;;;8.65;3.08;;;;;;;;;;8216713;28;20038;-62
2023/10/07 19:03:22;;;;;;;4.80;2.72;;;;;;;;;;8220899;28;20687;-61
2023/10/07 19:07:22;;;;;;;6.32;3.40;;;;;;;;;;8219586;28;20040;-62
2023/10/07 19:11:23;;;;;;;5.00;3.00;;;;;;;;;;8220266;28;20034;-62
2023/10/07 19:15:23;;;;;;;5.43;3.33;;;;;;;;;;8219902;28;20063;-62
2023/10/07 19:19:24;;;;;;;7.13;3.47;;;;;;;;;;8214928;28;20932;-62
2023/10/07 19:23:27;;;;;;;4.43;2.92;;;;;;;;;;8219666;28;20216;-61
2023/10/07 19:27:28;;;;;;;4.82;3.03;;;;;;;;;;8217033;28;20464;-61
2023/10/07 19:31:28;;;;;;;5.07;3.25;;;;;;;;;;8217646;28;20491;-61
2023/10/07 19:35:28;;;;;;;7.03;3.00;;;;;;;;;;8217895;28;20057;-61
2023/10/07 19:39:29;;;;;;;4.03;2.85;;;;;;;;;;8217075;28;20045;-61
2023/10/07 19:43:29;;;;;;;6.80;3.17;;;;;;;;;;8216956;28;20036;-61
2023/10/07 19:47:30;;;;;;;6.05;3.33;;;;;;;;;;8216730;28;20026;-63
2023/10/07 19:51:30;;;;;;;8.23;3.47;;;;;;;;;;8216566;28;20018;-61
2023/10/07 19:55:30;;;;;;;6.78;3.10;;;;;;;;;;8219903;28;20034;-61
2023/10/07 19:59:31;;;;;;;6.18;3.00;;;;;;;;;;8216264;28;20132;-62
2023/10/07 20:03:31;;;;;;;7.53;3.17;;;;;;;;;;8215256;28;20042;-61
2023/10/07 20:07:31;;;;;;;6.63;3.17;;;;;;;;;;8220170;28;20274;-61
2023/10/07 20:11:32;;;;;;;6.28;3.65;;;;;;;;;;8220503;28;20022;-62
2023/10/07 20:15:33;;;;;;;5.35;3.33;;;;;;;;;;8223530;28;20031;-62
2023/10/07 20:19:33;;;;;;;5.07;3.00;;;;;;;;;;8222898;28;20481;-61
2023/10/07 20:23:33;;;;;;;6.82;3.20;;;;;;;;;;8223405;28;20062;-61
2023/10/07 20:27:34;;;;;;;6.03;3.50;;;;;;;;;;8221954;28;20125;-61
2023/10/07 20:31:34;;;;;;;7.60;3.72;;;;;;;;;;8219800;28;20030;-61
2023/10/07 20:35:35;;;;;;;5.18;3.20;;;;;;;;;;8221902;28;20489;-61
2023/10/07 20:39:35;;;;;;;6.40;2.92;;;;;;;;;;8217999;28;20450;-62
2023/10/07 20:43:36;;;;;;;11.23;3.38;;;;;;;;;;8215961;28;20061;-61
2023/10/07 20:47:36;;;;;;;4.80;3.53;;;;;;;;;;8218875;28;20775;-62
2023/10/07 20:51:36;;;;;;;9.07;3.58;;;;;;;;;;8222278;28;20765;-61
2023/10/07 20:55:41;;;;;;;6.63;3.40;;;;;;;;;;8218382;28;20030;-62
2023/10/07 20:59:42;;;;;;;6.20;3.40;;;;;;;;;;8218606;28;20262;-62
2023/10/07 21:03:49;;;;;;;6.43;3.08;;;;;;;;;;8218609;28;20045;-62
2023/10/07 21:07:50;;;;;;;5.38;3.15;;;;;;;;;;8218477;28;20029;-61
2023/10/07 21:11:50;;;;;;;7.53;3.05;;;;;;;;;;8218105;28;20141;-61
2023/10/07 21:15:50;;;;;;;5.47;3.43;;;;;;;;;;8222194;28;20120;-61
2023/10/07 21:19:51;;;;;;;9.02;3.08;;;;;;;;;;8222618;28;20725;-61
2023/10/07 21:23:51;;;;;;;7.72;3.10;;;;;;;;;;8232082;28;20077;-61
2023/10/07 21:27:52;;;;;;;5.50;2.83;;;;;;;;;;8219240;28;20832;-62
2023/10/07 21:31:52;;;;;;;10.65;3.45;;;;;;;;;;8218418;28;20038;-65
2023/10/07 21:35:54;;;;;;;5.68;3.05;;;;;;;;;;8223484;28;20034;-62
2023/10/07 21:39:54;;;;;;;5.82;3.00;;;;;;;;;;8226005;28;20091;-62
2023/10/07 21:43:54;;;;;;;6.18;3.28;;;;;;;;;;8221251;28;20128;-62
2023/10/07 21:47:55;;;;;;;7.10;3.03;;;;;;;;;;8223322;28;20083;-61
2023/10/07 21:51:55;;;;;;;6.07;3.00;;;;;;;;;;8222193;28;21196;-60
2023/10/07 21:55:55;;;;;;;9.50;3.37;;;;;;;;;;8225951;28;20037;-61
2023/10/07 21:59:56;;;;;;;6.45;3.05;;;;;;;;;;8222696;28;20289;-61
2023/10/07 22:03:56;;;;;;;5.82;3.22;;;;;;;;;;8222284;28;20038;-61
2023/10/07 22:07:57;;;;;;;5.10;3.45;;;;;;;;;;8222097;28;20472;-62
2023/10/07 22:11:58;;;;;;;4.32;2.88;;;;;;;;;;8220794;28;20148;-61
2023/10/07 22:15:59;;;;;;;5.15;3.13;;;;;;;;;;8220656;28;20829;-61
2023/10/07 22:19:59;;;;;;;8.95;3.20;;;;;;;;;;8221738;28;20022;-61
2023/10/07 22:24:00;;;;;;;7.50;3.20;;;;;;;;;;8223896;28;20037;-62
2023/10/07 22:28:01;;;;;;;6.75;3.55;;;;;;;;;;8220229;28;20991;-62
2023/10/07 22:32:04;;;;;;;6.78;3.13;;;;;;;;;;8221077;28;20895;-61
2023/10/07 22:36:17;;;;;;;6.35;3.67;;;;;;;;;;8220763;28;20087;-61
2023/10/07 22:40:29;;;;;;;8.32;3.38;;;;;;;;;;8223063;28;20748;-62
2023/10/07 22:44:31;;;;;;;6.53;2.85;;;;;;;;;;8219859;28;20026;-61
2023/10/07 22:48:34;;;;;;;6.63;3.13;;;;;;;;;;8221177;28;20069;-61
2023/10/07 22:52:36;;;;;;;6.07;3.20;;;;;;;;;;8217756;28;20113;-61
2023/10/07 22:56:38;;;;;;;8.80;3.42;;;;;;;;;;8221581;28;20030;-61
2023/10/07 23:00:44;;;;;;;6.65;3.15;;;;;;;;;;8222933;28;20030;-63
2023/10/07 23:04:47;;;;;;;6.60;3.42;;;;;;;;;;8220714;28;20444;-62
2023/10/07 23:09:16;;;;;;;11.40;3.28;;;;;;;;;;8220500;28;20025;-62
2023/10/07 23:13:19;;;;;;;6.53;3.05;;;;;;;;;;8221144;28;20890;-63
2023/10/07 23:17:25;;;;;;;6.80;3.45;;;;;;;;;;8218520;28;20038;-64
2023/10/07 23:21:44;;;;;;;6.38;3.30;;;;;;;;;;8219703;28;20037;-63
2023/10/07 23:25:58;;;;;;;8.27;3.33;;;;;;;;;;8220395;28;20061;-62
2023/10/07 23:30:07;;;;;;;7.53;3.50;;;;;;;;;;8220253;28;21189;-63
2023/10/07 23:34:28;;;;;;;9.02;3.65;;;;;;;;;;8216826;28;20050;-62
2023/10/07 23:38:28;;;;;;;6.10;3.50;;;;;;;;;;8216950;28;20041;-63
2023/10/07 23:42:32;;;;;;;8.47;3.60;;;;;;;;;;8215787;28;20176;-62
2023/10/07 23:46:32;;;;;;;;;;;;;;;;;;8218005;28;20046;-61
2023/10/07 23:50:39;;;;;;;6.40;3.50;;;;;;;;;;8218436;28;20075;-61
2023/10/07 23:54:39;;;;;;;7.43;3.50;;;;;;;;;;8218954;28;20028;-61
2023/10/07 23:58:49;;;;;;;6.25;3.25;;;;;;;;;;8217966;28;20030;-62
